Time;durP1;ratioP1;P1;durP2;ratioP2;P2;SDS_P1;SDS_P2;PMS_P1;PMS_P2;Temp;Humidity;BMP_temperature;BMP_pressure;BME280_temperature;BME280_humidity;BME280_pressure;Samples;Min_cycle;Max_cycle;Signal;HPM_P1;HPM_P2
2022/10/31 04:00:58;;;;;;;0.90;0.80;;;14.80;77.40;;;;;;6029820;22;20496;-78
2022/10/31 04:03:27;;;;;;;0.70;0.70;;;14.80;77.30;;;;;;5073530;28;20528;-78
2022/10/31 04:05:56;;;;;;;1.00;0.80;;;14.80;77.30;;;;;;5073640;28;20448;-78
2022/10/31 04:08:28;;;;;;;0.70;0.70;;;14.80;77.40;;;;;;5075115;28;20437;-78
2022/10/31 04:10:57;;;;;;;0.70;0.70;;;14.80;77.30;;;;;;5076235;28;20473;-79
2022/10/31 04:13:27;;;;;;;0.80;0.70;;;14.80;77.40;;;;;;5075246;28;20433;-78
2022/10/31 04:15:56;;;;;;;0.83;0.73;;;14.80;77.10;;;;;;5076581;28;20437;-78
2022/10/31 04:18:23;;;;;;;0.80;0.80;;;14.80;77.00;;;;;;5075129;28;20448;-78
2022/10/31 04:21:00;;;;;;;0.70;0.70;;;14.80;77.10;;;;;;5073421;28;20913;-79
2022/10/31 04:23:27;;;;;;;1.10;0.70;;;14.80;77.00;;;;;;5073341;28;20433;-78
2022/10/31 04:25:53;;;;;;;0.67;0.67;;;14.80;77.00;;;;;;5073158;28;20499;-78
2022/10/31 04:28:20;;;;;;;0.80;0.80;;;14.80;76.90;;;;;;5073066;28;20446;-78
2022/10/31 04:30:47;;;;;;;0.70;0.70;;;14.80;76.70;;;;;;5072968;28;20485;-79
2022/10/31 04:33:15;;;;;;;0.80;0.70;;;14.90;76.70;;;;;;5073052;28;20449;-78
2022/10/31 04:35:42;;;;;;;0.80;0.80;;;14.90;76.70;;;;;;5073389;28;20441;-78
2022/10/31 04:38:09;;;;;;;0.90;0.90;;;14.90;76.80;;;;;;5073022;28;20452;-78
2022/10/31 04:40:35;;;;;;;0.90;0.90;;;14.90;76.70;;;;;;5072977;28;20460;-79
2022/10/31 04:43:02;;;;;;;0.60;0.60;;;14.80;76.50;;;;;;5073018;28;20445;-78
2022/10/31 04:45:29;;;;;;;0.67;0.67;;;14.80;76.50;;;;;;5072666;28;20928;-79
2022/10/31 04:47:55;;;;;;;0.70;0.70;;;14.80;76.50;;;;;;5072956;28;20488;-78
2022/10/31 04:50:23;;;;;;;0.80;0.80;;;14.80;76.80;;;;;;5072821;28;20477;-80
2022/10/31 04:52:51;;;;;;;0.70;0.70;;;14.80;76.80;;;;;;5072851;28;20862;-78
2022/10/31 04:55:18;;;;;;;0.80;0.80;;;14.70;76.80;;;;;;5072541;28;20940;-79
2022/10/31 04:57:46;;;;;;;0.87;0.80;;;14.70;76.70;;;;;;5072543;28;20442;-78
2022/10/31 05:00:15;;;;;;;0.70;0.70;;;14.70;76.80;;;;;;5073907;28;20445;-78
2022/10/31 05:02:46;;;;;;;1.27;0.97;;;14.70;76.80;;;;;;5076115;28;20485;-78
2022/10/31 05:05:13;;;;;;;0.70;0.70;;;14.70;77.00;;;;;;5076442;28;20471;-79
2022/10/31 05:07:42;;;;;;;0.80;0.70;;;14.60;77.10;;;;;;5076414;28;20854;-78
2022/10/31 05:10:10;;;;;;;1.20;0.80;;;14.50;77.20;;;;;;5075983;28;21105;-78
2022/10/31 05:12:37;;;;;;;1.10;0.80;;;14.60;77.20;;;;;;5076397;28;20994;-78
2022/10/31 05:15:05;;;;;;;0.70;0.70;;;14.60;77.50;;;;;;5076537;28;20466;-78
2022/10/31 05:17:32;;;;;;;0.70;0.70;;;14.60;77.70;;;;;;5076507;28;20799;-78
2022/10/31 05:19:58;;;;;;;2.33;0.90;;;14.60;77.70;;;;;;5076262;28;20446;-78
2022/10/31 05:22:25;;;;;;;0.70;0.70;;;14.60;77.80;;;;;;5076316;28;20815;-78
2022/10/31 05:24:53;;;;;;;0.70;0.70;;;14.50;77.70;;;;;;5076360;28;20450;-78
2022/10/31 05:27:20;;;;;;;0.70;0.60;;;14.50;77.70;;;;;;5076184;28;20441;-78
2022/10/31 05:29:47;;;;;;;0.70;0.70;;;14.50;77.90;;;;;;5076142;28;20477;-77
2022/10/31 05:32:14;;;;;;;0.90;0.90;;;14.50;78.10;;;;;;5075999;28;20476;-78
2022/10/31 05:34:40;;;;;;;0.80;0.80;;;14.30;77.70;;;;;;5075737;28;20441;-78
2022/10/31 05:37:07;;;;;;;0.70;0.70;;;14.30;77.60;;;;;;5076006;28;20816;-78
2022/10/31 05:39:34;;;;;;;0.83;0.80;;;14.30;77.50;;;;;;5076028;28;20516;-79
2022/10/31 05:42:02;;;;;;;1.30;1.20;;;14.30;77.60;;;;;;5075535;28;20453;-78
2022/10/31 05:44:28;;;;;;;0.80;0.70;;;14.20;77.80;;;;;;5075877;28;20453;-79
2022/10/31 05:46:55;;;;;;;0.80;0.80;;;14.20;78.00;;;;;;5075757;28;20442;-79
2022/10/31 05:49:22;;;;;;;0.80;0.80;;;14.20;78.10;;;;;;5075661;28;20473;-78
2022/10/31 05:51:49;;;;;;;0.90;0.90;;;14.20;78.40;;;;;;5075769;28;20496;-79
2022/10/31 05:54:16;;;;;;;0.83;0.83;;;14.20;78.60;;;;;;5077054;28;20454;-78
2022/10/31 05:56:42;;;;;;;0.90;0.70;;;14.20;79.10;;;;;;5075585;28;20442;-78
2022/10/31 05:59:10;;;;;;;0.80;0.80;;;14.20;79.00;;;;;;5075518;28;20445;-79
2022/10/31 06:01:37;;;;;;;1.23;1.13;;;14.20;78.90;;;;;;5075930;28;20474;-79
2022/10/31 06:04:04;;;;;;;0.80;0.80;;;14.10;79.00;;;;;;5076546;28;20446;-79
2022/10/31 06:06:30;;;;;;;0.87;0.77;;;14.10;79.30;;;;;;5075644;28;20442;-79
2022/10/31 06:08:57;;;;;;;0.80;0.70;;;14.20;79.20;;;;;;5075214;28;20889;-78
2022/10/31 06:11:24;;;;;;;0.80;0.80;;;14.20;79.00;;;;;;5073920;28;20877;-78
2022/10/31 06:13:51;;;;;;;0.70;0.70;;;14.30;78.90;;;;;;5075451;28;20456;-79
2022/10/31 06:16:19;;;;;;;0.90;0.90;;;14.30;78.70;;;;;;5075041;28;20454;-78
2022/10/31 06:18:46;;;;;;;1.17;0.90;;;14.40;78.10;;;;;;5075354;28;20445;-78
2022/10/31 06:21:13;;;;;;;0.90;0.90;;;14.40;77.70;;;;;;5075369;28;20473;-78
2022/10/31 06:23:39;;;;;;;0.70;0.70;;;14.30;77.50;;;;;;5075417;28;20445;-79
2022/10/31 06:26:06;;;;;;;0.70;0.70;;;14.40;77.60;;;;;;5075139;28;20480;-79
2022/10/31 06:28:33;;;;;;;0.70;0.70;;;14.40;77.60;;;;;;5075006;28;20441;-79
2022/10/31 06:31:00;;;;;;;1.20;0.80;;;14.40;77.40;;;;;;5074441;28;20481;-77
2022/10/31 06:33:28;;;;;;;0.90;0.90;;;14.50;77.30;;;;;;5074878;28;20496;-77
2022/10/31 06:35:54;;;;;;;0.90;0.77;;;14.50;77.20;;;;;;5074920;28;20449;-77
2022/10/31 06:38:21;;;;;;;1.03;0.80;;;14.50;77.00;;;;;;5075095;28;20446;-78
2022/10/31 06:40:48;;;;;;;0.90;0.90;;;14.50;76.90;;;;;;5074473;28;20469;-78
2022/10/31 06:43:14;;;;;;;0.70;0.70;;;15.00;76.80;;;;;;5074239;28;20798;-78
2022/10/31 06:45:41;;;;;;;0.80;0.70;;;15.70;75.00;;;;;;5074668;28;20469;-78
2022/10/31 06:48:08;;;;;;;0.80;0.80;;;16.50;72.40;;;;;;5074108;28;20944;-77
2022/10/31 06:50:36;;;;;;;0.70;0.70;;;17.40;69.10;;;;;;5074070;28;21007;-78
2022/10/31 06:53:03;;;;;;;0.80;0.80;;;17.90;66.80;;;;;;5074401;28;20460;-77
2022/10/31 06:55:30;;;;;;;0.90;0.90;;;18.50;65.00;;;;;;5074099;28;20976;-77
2022/10/31 06:57:58;;;;;;;0.70;0.70;;;18.80;63.60;;;;;;5074482;28;20459;-78
2022/10/31 07:00:27;;;;;;;0.70;0.70;;;19.10;63.10;;;;;;5074063;28;20446;-78
2022/10/31 07:02:55;;;;;;;0.70;0.70;;;19.40;62.50;;;;;;5073728;28;20465;-78
2022/10/31 07:05:22;;;;;;;0.70;0.60;;;19.90;61.20;;;;;;5074066;28;20445;-78
2022/10/31 07:07:53;;;;;;;0.70;0.70;;;20.00;60.90;;;;;;5073729;28;20983;-78
2022/10/31 07:10:19;;;;;;;0.70;0.70;;;20.20;60.80;;;;;;5073898;28;20485;-79
2022/10/31 07:12:46;;;;;;;0.70;0.70;;;20.10;60.20;;;;;;5073849;28;20462;-78
2022/10/31 07:15:13;;;;;;;0.80;0.73;;;20.10;61.00;;;;;;5073967;28;20441;-78
2022/10/31 07:17:39;;;;;;;0.80;0.70;;;20.40;60.50;;;;;;5073979;28;20454;-78
2022/10/31 07:20:07;;;;;;;0.70;0.70;;;20.60;60.20;;;;;;5073563;28;20929;-78
2022/10/31 07:22:35;;;;;;;0.80;0.80;;;20.80;60.10;;;;;;5073393;28;20482;-78
2022/10/31 07:25:04;;;;;;;0.90;0.90;;;20.90;60.10;;;;;;5073842;28;20446;-78
2022/10/31 07:27:36;;;;;;;0.77;0.77;;;20.80;60.30;;;;;;5073621;28;20454;-78
2022/10/31 07:30:03;;;;;;;0.80;0.80;;;20.50;60.90;;;;;;5073657;28;20468;-78
2022/10/31 07:32:38;;;;;;;0.70;0.70;;;20.20;61.70;;;;;;5073605;28;20469;-78
2022/10/31 07:35:05;;;;;;;0.80;0.80;;;19.80;62.70;;;;;;5074865;28;20444;-78
2022/10/31 07:37:32;;;;;;;0.70;0.70;;;19.60;63.70;;;;;;5074363;28;20459;-77
2022/10/31 07:39:58;;;;;;;0.80;0.80;;;19.40;64.30;;;;;;5073257;28;20450;-78
2022/10/31 07:42:26;;;;;;;0.90;0.90;;;19.40;64.50;;;;;;5073492;28;20469;-78
2022/10/31 07:44:53;;;;;;;0.90;0.90;;;19.30;64.90;;;;;;5073574;28;20449;-78
2022/10/31 07:47:20;;;;;;;0.90;0.90;;;19.40;65.00;;;;;;5073402;28;20454;-78
2022/10/31 07:49:46;;;;;;;0.83;0.83;;;19.40;65.00;;;;;;5073363;28;20450;-78
2022/10/31 07:52:13;;;;;;;0.87;0.87;;;19.50;64.90;;;;;;5073068;28;20972;-78
2022/10/31 07:54:40;;;;;;;0.90;0.80;;;19.50;64.90;;;;;;5073425;28;20465;-78
2022/10/31 07:57:06;;;;;;;0.80;0.70;;;19.60;65.00;;;;;;5073377;28;20446;-78
2022/10/31 07:59:34;;;;;;;0.90;0.90;;;19.70;65.10;;;;;;5073098;28;20960;-78
2022/10/31 08:02:01;;;;;;;0.80;0.80;;;19.80;64.80;;;;;;5073016;28;20476;-78
2022/10/31 08:04:28;;;;;;;1.33;0.90;;;19.90;64.60;;;;;;5073270;28;20441;-78
2022/10/31 08:06:54;;;;;;;0.90;0.90;;;20.00;64.30;;;;;;5073086;28;20450;-78
2022/10/31 08:09:21;;;;;;;0.80;0.80;;;19.90;64.60;;;;;;5073388;28;20445;-78
2022/10/31 08:11:48;;;;;;;0.80;0.80;;;19.50;65.30;;;;;;5073236;28;20481;-78
2022/10/31 08:14:14;;;;;;;0.83;0.83;;;19.00;66.50;;;;;;5073273;28;20448;-78
2022/10/31 08:16:42;;;;;;;0.70;0.70;;;18.80;67.30;;;;;;5073211;28;20472;-78
2022/10/31 08:19:09;;;;;;;0.90;0.90;;;18.70;67.70;;;;;;5073156;28;20448;-78
2022/10/31 08:21:36;;;;;;;0.90;0.90;;;18.70;68.30;;;;;;5072789;28;20976;-78
2022/10/31 08:24:02;;;;;;;0.90;0.90;;;18.40;68.90;;;;;;5073205;28;20449;-78
2022/10/31 08:26:30;;;;;;;1.20;0.80;;;18.30;69.60;;;;;;5073096;28;20472;-78
2022/10/31 08:28:57;;;;;;;0.80;0.80;;;18.20;70.30;;;;;;5072782;28;20864;-78
2022/10/31 08:31:26;;;;;;;0.70;0.70;;;17.90;71.60;;;;;;5072911;28;20490;-78
2022/10/31 08:33:54;;;;;;;0.87;0.87;;;17.80;72.20;;;;;;5073083;28;20454;-78
2022/10/31 08:36:22;;;;;;;0.90;0.90;;;17.80;72.50;;;;;;5076056;28;20447;-78
2022/10/31 08:38:48;;;;;;;0.90;0.90;;;17.60;72.80;;;;;;5076901;28;20453;-78
2022/10/31 08:41:15;;;;;;;0.70;0.70;;;17.50;73.70;;;;;;5076559;28;20995;-78
2022/10/31 08:43:42;;;;;;;0.70;0.70;;;17.30;74.90;;;;;;5076861;28;20445;-79
2022/10/31 08:46:09;;;;;;;0.80;0.80;;;17.10;75.80;;;;;;5076695;28;21054;-78
2022/10/31 08:48:36;;;;;;;1.03;0.90;;;16.90;76.50;;;;;;5077095;28;20445;-79
2022/10/31 08:51:04;;;;;;;0.80;0.80;;;16.60;77.60;;;;;;5076590;28;20485;-78
2022/10/31 08:53:30;;;;;;;0.80;0.80;;;16.40;78.20;;;;;;5077876;28;20449;-79
2022/10/31 08:55:57;;;;;;;0.90;0.90;;;16.50;78.60;;;;;;5077797;28;20452;-76
2022/10/31 08:58:25;;;;;;;0.93;0.90;;;16.50;79.10;;;;;;5076841;28;20456;-76
2022/10/31 09:00:53;;;;;;;0.90;0.90;;;16.60;79.20;;;;;;5076201;28;20561;-77
2022/10/31 09:03:23;;;;;;;0.80;0.80;;;16.70;79.00;;;;;;5077426;28;20499;-77
2022/10/31 09:05:51;;;;;;;0.80;0.80;;;17.00;78.20;;;;;;5076630;28;20441;-77
2022/10/31 09:08:19;;;;;;;0.80;0.80;;;17.10;77.90;;;;;;5076259;28;20442;-76
2022/10/31 09:10:45;;;;;;;0.73;0.73;;;17.20;78.50;;;;;;5076157;28;20535;-78
2022/10/31 09:13:14;;;;;;;0.80;0.70;;;17.30;78.80;;;;;;5076619;28;20864;-76
2022/10/31 09:15:44;;;;;;;1.00;1.00;;;17.20;79.40;;;;;;5076518;28;20449;-77
2022/10/31 09:18:12;;;;;;;0.90;0.63;;;17.10;79.70;;;;;;5076601;28;20948;-77
2022/10/31 09:20:40;;;;;;;0.90;0.90;;;17.30;79.60;;;;;;5076442;28;20446;-77
2022/10/31 09:23:09;;;;;;;0.87;0.87;;;17.20;78.90;;;;;;5076403;28;20461;-77
2022/10/31 09:25:37;;;;;;;0.83;0.83;;;17.10;79.70;;;;;;5076150;28;20448;-77
2022/10/31 09:28:06;;;;;;;1.17;0.80;;;17.30;79.80;;;;;;5076276;28;20438;-77
2022/10/31 09:30:35;;;;;;;0.80;0.80;;;17.30;79.70;;;;;;5076128;28;20486;-76
2022/10/31 09:33:03;;;;;;;1.00;1.00;;;17.20;80.20;;;;;;5075710;28;20933;-77
2022/10/31 09:35:30;;;;;;;0.80;0.80;;;17.00;80.80;;;;;;5076161;28;20450;-76
2022/10/31 09:37:57;;;;;;;1.57;0.80;;;17.00;80.90;;;;;;5075904;28;20446;-77
2022/10/31 09:40:31;;;;;;;1.00;1.00;;;17.10;80.50;;;;;;5075711;28;20457;-77
2022/10/31 09:43:04;;;;;;;1.03;0.90;;;17.20;80.00;;;;;;5075925;28;20438;-77
2022/10/31 09:45:37;;;;;;;1.03;1.03;;;17.40;79.70;;;;;;5076138;28;20434;-78
2022/10/31 09:48:18;;;;;;;0.90;0.90;;;17.50;80.10;;;;;;5075762;28;20444;-77
2022/10/31 09:50:49;;;;;;;1.37;0.80;;;17.70;79.20;;;;;;5075578;28;20485;-77
2022/10/31 09:53:24;;;;;;;1.23;0.87;;;17.90;78.40;;;;;;5075693;28;20452;-77
2022/10/31 09:55:52;;;;;;;0.80;0.80;;;18.00;78.20;;;;;;5075449;28;20459;-78
2022/10/31 09:58:24;;;;;;;0.80;0.80;;;18.10;77.20;;;;;;5075482;28;20496;-77
2022/10/31 10:00:51;;;;;;;1.00;0.90;;;18.10;76.80;;;;;;5075073;28;20481;-78
2022/10/31 10:03:29;;;;;;;0.90;0.90;;;18.10;76.10;;;;;;5075459;28;20457;-77
2022/10/31 10:06:02;;;;;;;1.00;0.90;;;18.00;76.10;;;;;;5075526;28;20433;-77
2022/10/31 10:08:32;;;;;;;1.00;1.00;;;18.10;76.30;;;;;;5075333;28;20807;-77
2022/10/31 10:11:15;;;;;;;0.80;0.80;;;18.20;76.30;;;;;;5075226;28;20485;-77
2022/10/31 10:13:58;;;;;;;0.77;0.77;;;18.10;77.40;;;;;;5075890;28;20437;-77
2022/10/31 10:16:43;;;;;;;1.13;1.03;;;18.20;77.60;;;;;;5076865;28;20429;-77
2022/10/31 10:19:33;;;;;;;1.27;1.00;;;18.20;77.60;;;;;;5075073;28;20441;-77
2022/10/31 10:22:09;;;;;;;0.80;0.80;;;18.10;77.80;;;;;;5075038;28;20466;-77
2022/10/31 10:24:53;;;;;;;0.80;0.80;;;18.20;77.80;;;;;;5075028;28;20425;-78
2022/10/31 10:27:28;;;;;;;1.90;0.97;;;18.20;76.60;;;;;;5074867;28;20802;-78
2022/10/31 10:30:02;;;;;;;0.80;0.80;;;18.20;76.30;;;;;;5075205;28;20433;-77
2022/10/31 10:32:35;;;;;;;1.00;0.90;;;18.10;76.70;;;;;;5075062;28;20496;-79
2022/10/31 10:35:11;;;;;;;1.00;1.00;;;18.00;77.20;;;;;;5075098;28;20426;-77
2022/10/31 10:37:42;;;;;;;1.00;1.00;;;18.00;77.70;;;;;;5074832;28;20453;-77
2022/10/31 10:40:14;;;;;;;1.27;0.80;;;18.10;77.60;;;;;;5074626;28;20457;-77
2022/10/31 10:48:36;;;;;;;0.80;0.80;;;18.00;78.20;;;;;;5075248;28;20912;-77
2022/10/31 10:51:07;;;;;;;1.20;1.10;;;18.00;77.60;;;;;;5074700;28;20488;-77
2022/10/31 10:54:00;;;;;;;1.10;1.00;;;18.10;77.90;;;;;;5075298;28;20430;-78
2022/10/31 10:56:37;;;;;;;1.13;1.13;;;18.30;78.10;;;;;;5075102;28;20468;-78
2022/10/31 10:59:04;;;;;;;1.20;1.10;;;18.40;77.40;;;;;;5073858;28;20434;-77
2022/10/31 11:01:33;;;;;;;0.90;0.90;;;18.40;77.30;;;;;;5074068;28;20482;-77
2022/10/31 11:03:59;;;;;;;1.30;1.10;;;18.50;76.90;;;;;;5074101;28;20464;-78
2022/10/31 11:06:26;;;;;;;1.00;1.00;;;18.60;76.20;;;;;;5074401;28;20450;-77
2022/10/31 11:08:53;;;;;;;1.20;1.10;;;18.60;76.30;;;;;;5074436;28;20441;-77
2022/10/31 11:11:30;;;;;;;1.00;1.00;;;18.60;76.40;;;;;;5074348;28;20473;-77
2022/10/31 11:14:02;;;;;;;0.93;0.93;;;18.70;76.80;;;;;;5074400;28;20442;-77
2022/10/31 11:16:34;;;;;;;1.07;0.97;;;18.80;76.90;;;;;;5074901;28;20473;-78
2022/10/31 11:19:10;;;;;;;1.50;1.40;;;18.90;75.30;;;;;;5074158;28;20437;-78
2022/10/31 11:21:37;;;;;;;1.27;1.00;;;18.80;75.30;;;;;;5074428;28;20467;-77
2022/10/31 11:24:05;;;;;;;1.37;1.27;;;18.90;76.10;;;;;;5075552;28;20448;-77
2022/10/31 11:26:34;;;;;;;0.90;0.80;;;19.00;74.60;;;;;;5074291;28;20457;-78
2022/10/31 11:29:02;;;;;;;0.80;0.80;;;19.10;74.50;;;;;;5074218;28;20453;-78
2022/10/31 11:31:30;;;;;;;0.90;0.90;;;19.10;73.20;;;;;;5075775;28;20492;-78
2022/10/31 11:34:01;;;;;;;1.30;0.97;;;19.10;74.40;;;;;;5073517;28;20448;-78
2022/10/31 11:36:31;;;;;;;0.90;0.90;;;19.20;74.70;;;;;;5074148;28;20438;-78
2022/10/31 11:39:00;;;;;;;0.80;0.80;;;19.30;74.90;;;;;;5073755;28;20434;-78
2022/10/31 11:41:29;;;;;;;1.17;1.00;;;19.50;74.70;;;;;;5073569;28;20466;-78
2022/10/31 11:43:58;;;;;;;0.93;0.93;;;19.60;72.50;;;;;;5073659;28;20441;-78
2022/10/31 11:46:33;;;;;;;1.00;0.90;;;19.50;72.80;;;;;;5075497;28;20571;-78
2022/10/31 11:49:02;;;;;;;1.17;1.10;;;19.60;72.60;;;;;;5074391;28;20441;-78
2022/10/31 11:51:33;;;;;;;1.10;1.10;;;19.50;73.30;;;;;;5074577;28;20481;-78
2022/10/31 11:54:02;;;;;;;1.10;1.07;;;19.50;72.20;;;;;;5074417;28;20442;-79
2022/10/31 11:56:38;;;;;;;0.90;0.90;;;19.50;73.10;;;;;;5074605;28;20481;-78
2022/10/31 11:59:16;;;;;;;0.90;0.90;;;19.40;72.70;;;;;;5075975;28;20430;-78
2022/10/31 12:01:49;;;;;;;1.00;1.00;;;19.70;72.50;;;;;;5074436;28;20477;-77
2022/10/31 12:04:17;;;;;;;1.13;1.00;;;19.80;72.40;;;;;;5073731;28;20458;-78
2022/10/31 12:06:46;;;;;;;0.80;0.80;;;20.10;72.10;;;;;;5073537;28;20481;-77
2022/10/31 12:09:21;;;;;;;1.40;1.30;;;20.40;71.90;;;;;;5074693;28;20442;-78
2022/10/31 12:12:01;;;;;;;1.00;1.00;;;20.40;70.70;;;;;;5077340;28;20538;-78
2022/10/31 12:14:39;;;;;;;1.30;1.20;;;20.20;71.10;;;;;;5077605;28;20781;-78
2022/10/31 12:17:14;;;;;;;1.07;1.07;;;20.20;71.40;;;;;;5077731;28;20429;-78
2022/10/31 12:19:47;;;;;;;1.00;1.00;;;20.20;71.30;;;;;;5077640;28;20438;-78
2022/10/31 12:22:21;;;;;;;0.97;0.97;;;20.40;71.10;;;;;;5077532;28;20457;-78
2022/10/31 12:25:03;;;;;;;0.90;0.90;;;20.60;70.70;;;;;;5077174;28;20441;-78
2022/10/31 12:27:48;;;;;;;1.30;1.20;;;20.70;70.60;;;;;;5077353;28;20425;-78
2022/10/31 12:30:20;;;;;;;1.00;1.00;;;20.60;70.90;;;;;;5077068;28;20434;-77
2022/10/31 12:33:16;;;;;;;1.00;1.00;;;20.40;71.40;;;;;;5076983;28;20482;-77
2022/10/31 12:35:54;;;;;;;1.17;1.07;;;20.10;72.10;;;;;;5077003;28;20438;-77
2022/10/31 12:38:44;;;;;;;2.60;1.20;;;19.80;73.40;;;;;;5076952;28;20437;-78
2022/10/31 12:41:23;;;;;;;1.43;1.00;;;19.50;74.40;;;;;;5076614;28;20999;-77
2022/10/31 12:43:57;;;;;;;1.00;1.00;;;19.50;74.70;;;;;;5076852;28;20448;-77
2022/10/31 12:46:35;;;;;;;0.90;0.90;;;19.30;75.00;;;;;;5076833;28;20437;-77
2022/10/31 12:49:28;;;;;;;0.90;0.90;;;19.20;75.70;;;;;;5076710;28;20434;-77
2022/10/31 12:52:07;;;;;;;2.50;1.13;;;18.90;76.50;;;;;;5077744;28;20485;-78
2022/10/31 12:54:51;;;;;;;0.80;0.80;;;18.80;76.90;;;;;;5077089;28;20429;-77
2022/10/31 12:57:26;;;;;;;1.23;0.90;;;18.90;77.10;;;;;;5076775;28;20839;-77
2022/10/31 12:59:58;;;;;;;2.30;1.13;;;19.10;76.90;;;;;;5076644;28;20433;-78
2022/10/31 13:02:30;;;;;;;1.03;1.03;;;19.30;76.50;;;;;;5076028;28;20518;-78
2022/10/31 13:05:01;;;;;;;0.80;0.80;;;19.30;76.40;;;;;;5076526;28;20433;-78
2022/10/31 13:07:34;;;;;;;1.10;1.00;;;19.10;76.40;;;;;;5076448;28;20479;-78
2022/10/31 13:10:04;;;;;;;1.33;1.23;;;19.10;76.80;;;;;;5076339;28;20434;-77
2022/10/31 13:12:34;;;;;;;1.10;1.00;;;19.20;76.50;;;;;;5076138;28;20983;-78
2022/10/31 13:15:06;;;;;;;2.10;1.20;;;19.20;76.20;;;;;;5076307;28;20453;-78
2022/10/31 13:17:39;;;;;;;0.80;0.80;;;19.30;76.30;;;;;;5076249;28;20437;-78
2022/10/31 13:20:24;;;;;;;1.50;1.10;;;19.30;76.30;;;;;;5076130;28;20438;-78
2022/10/31 13:22:55;;;;;;;1.10;1.10;;;19.10;76.10;;;;;;5075674;28;20437;-78
2022/10/31 13:25:25;;;;;;;0.97;0.97;;;18.90;76.90;;;;;;5076092;28;20783;-78
2022/10/31 13:27:56;;;;;;;1.00;0.90;;;18.90;76.80;;;;;;5075949;28;20453;-77
2022/10/31 13:30:24;;;;;;;1.10;1.00;;;19.20;76.70;;;;;;5076042;28;20437;-78
2022/10/31 13:32:59;;;;;;;1.20;1.10;;;19.40;75.40;;;;;;5075943;28;20561;-77
2022/10/31 13:35:31;;;;;;;1.30;0.93;;;19.70;74.40;;;;;;5076074;28;20432;-78
2022/10/31 13:38:10;;;;;;;0.80;0.80;;;21.00;71.90;;;;;;5076068;28;20434;-78
2022/10/31 13:40:45;;;;;;;0.80;0.80;;;23.90;64.70;;;;;;5076132;28;20458;-78
2022/10/31 13:43:20;;;;;;;1.30;1.20;;;25.90;59.00;;;;;;5075545;28;20802;-78
2022/10/31 13:45:51;;;;;;;1.10;1.10;;;26.50;57.30;;;;;;5075422;28;20433;-78
2022/10/31 13:48:38;;;;;;;0.90;0.87;;;25.60;58.60;;;;;;5075676;28;20446;-78
2022/10/31 13:51:07;;;;;;;2.50;1.10;;;24.60;60.80;;;;;;5075467;28;20471;-78
2022/10/31 13:53:44;;;;;;;1.00;0.90;;;23.90;62.80;;;;;;5075475;28;20576;-78
2022/10/31 13:56:22;;;;;;;1.00;0.90;;;24.00;62.90;;;;;;5075428;28;20791;-78
2022/10/31 13:59:04;;;;;;;1.40;1.30;;;24.20;62.00;;;;;;5075452;28;20434;-78
2022/10/31 14:01:33;;;;;;;0.83;0.83;;;24.40;61.40;;;;;;5075828;28;20476;-78
2022/10/31 14:04:06;;;;;;;1.07;0.90;;;24.30;61.60;;;;;;5075258;28;20940;-77
2022/10/31 14:06:39;;;;;;;1.63;1.50;;;24.00;61.90;;;;;;5075380;28;20426;-78
2022/10/31 14:09:22;;;;;;;1.10;1.00;;;23.80;62.80;;;;;;5075771;28;20456;-78
2022/10/31 14:11:50;;;;;;;1.30;1.07;;;23.30;63.90;;;;;;5075112;28;20543;-78
2022/10/31 14:14:19;;;;;;;1.10;1.00;;;23.30;64.30;;;;;;5075167;28;20453;-78
2022/10/31 14:16:46;;;;;;;1.30;1.20;;;23.70;63.90;;;;;;5075178;28;20465;-78
2022/10/31 14:19:20;;;;;;;1.10;1.00;;;24.00;63.00;;;;;;5074708;28;20444;-78
2022/10/31 14:21:47;;;;;;;1.10;1.10;;;24.10;62.90;;;;;;5074954;28;20465;-78
2022/10/31 14:24:30;;;;;;;1.17;1.07;;;23.70;63.40;;;;;;5075067;28;20445;-78
2022/10/31 14:26:59;;;;;;;1.60;1.50;;;23.50;64.00;;;;;;5075459;28;20917;-80
2022/10/31 14:29:28;;;;;;;0.90;0.90;;;23.40;64.00;;;;;;5074886;28;20453;-79
2022/10/31 14:31:57;;;;;;;1.10;1.00;;;23.50;63.90;;;;;;5074421;28;20470;-79
2022/10/31 14:34:27;;;;;;;2.27;1.33;;;23.20;63.90;;;;;;5074264;28;20541;-78
2022/10/31 14:37:14;;;;;;;0.80;0.80;;;22.60;65.40;;;;;;5076322;28;20442;-80
2022/10/31 14:39:54;;;;;;;1.50;1.03;;;22.30;66.50;;;;;;5077739;28;20449;-79
2022/10/31 14:42:34;;;;;;;0.77;0.77;;;21.80;67.60;;;;;;5074663;28;20461;-79
2022/10/31 14:45:19;;;;;;;0.90;0.80;;;21.50;68.80;;;;;;5074842;28;20434;-79
2022/10/31 14:47:57;;;;;;;2.00;1.13;;;21.40;69.40;;;;;;5074455;28;20434;-78
2022/10/31 14:50:41;;;;;;;1.10;1.00;;;21.50;69.00;;;;;;5074008;28;20906;-79
2022/10/31 14:53:14;;;;;;;1.10;1.00;;;21.60;68.80;;;;;;5074346;28;20464;-77
2022/10/31 14:55:45;;;;;;;0.97;0.97;;;21.60;68.80;;;;;;5074562;28;20430;-78
2022/10/31 14:58:19;;;;;;;1.20;1.10;;;21.70;68.90;;;;;;5074412;28;20422;-77
2022/10/31 15:00:46;;;;;;;1.00;1.00;;;21.70;69.10;;;;;;5075094;28;20866;-78
2022/10/31 15:03:16;;;;;;;1.10;1.03;;;21.70;69.40;;;;;;5074470;28;20438;-77
2022/10/31 15:05:48;;;;;;;1.00;1.00;;;21.80;69.50;;;;;;5075185;28;20464;-78
2022/10/31 15:08:28;;;;;;;1.00;1.00;;;21.80;69.70;;;;;;5075296;28;20426;-78
2022/10/31 15:10:56;;;;;;;1.00;1.00;;;21.70;69.60;;;;;;5074957;28;20508;-79
2022/10/31 15:13:23;;;;;;;0.90;0.90;;;21.70;70.00;;;;;;5074394;28;20546;-78
2022/10/31 15:15:52;;;;;;;2.00;1.00;;;21.60;70.10;;;;;;5074086;28;20445;-78
2022/10/31 15:18:22;;;;;;;1.43;0.90;;;21.40;70.60;;;;;;5074638;28;20468;-78
2022/10/31 15:20:51;;;;;;;1.27;1.00;;;21.30;71.10;;;;;;5074306;28;20473;-78
2022/10/31 15:23:23;;;;;;;2.73;0.93;;;21.10;71.40;;;;;;5074335;28;20438;-78
2022/10/31 15:25:49;;;;;;;1.20;0.90;;;21.00;71.90;;;;;;5074458;28;20434;-78
2022/10/31 15:28:23;;;;;;;1.23;0.80;;;20.90;72.30;;;;;;5074599;28;20445;-79
2022/10/31 15:30:52;;;;;;;0.90;0.90;;;20.80;72.60;;;;;;5074259;28;20465;-78
2022/10/31 15:33:22;;;;;;;0.93;0.83;;;20.70;73.00;;;;;;5073972;28;20509;-78
2022/10/31 15:35:56;;;;;;;1.10;1.00;;;20.50;73.30;;;;;;5074002;28;20820;-78
2022/10/31 15:38:24;;;;;;;1.23;1.13;;;20.40;73.70;;;;;;5073849;28;20425;-78
2022/10/31 15:40:59;;;;;;;0.83;0.83;;;20.30;74.00;;;;;;5073911;28;21018;-78
2022/10/31 15:43:31;;;;;;;1.03;0.93;;;20.10;74.40;;;;;;5073891;28;20449;-78
2022/10/31 15:46:00;;;;;;;0.80;0.80;;;20.00;74.60;;;;;;5074947;28;20434;-77
2022/10/31 15:48:26;;;;;;;1.03;1.00;;;19.90;75.00;;;;;;5074056;28;20441;-78
2022/10/31 15:50:55;;;;;;;1.20;1.10;;;19.80;75.20;;;;;;5074351;28;20477;-77
2022/10/31 15:53:25;;;;;;;3.00;1.00;;;19.70;75.40;;;;;;5074664;28;20515;-77
2022/10/31 15:55:55;;;;;;;1.07;0.97;;;19.70;75.70;;;;;;5074291;28;20446;-77
2022/10/31 15:58:23;;;;;;;1.00;1.00;;;19.60;75.90;;;;;;5074306;28;20446;-77
2022/10/31 16:01:00;;;;;;;1.10;1.00;;;19.50;76.00;;;;;;5073516;28;20470;-77
2022/10/31 16:03:29;;;;;;;0.80;0.80;;;19.40;76.40;;;;;;5073971;28;20426;-78
2022/10/31 16:05:58;;;;;;;1.10;1.10;;;19.30;76.60;;;;;;5073921;28;20452;-79
2022/10/31 16:08:27;;;;;;;1.90;1.30;;;19.20;76.80;;;;;;5073766;28;20503;-78
2022/10/31 16:10:54;;;;;;;1.17;1.07;;;19.20;77.00;;;;;;5073617;28;20867;-78
2022/10/31 16:13:26;;;;;;;1.50;1.40;;;19.10;77.20;;;;;;5073731;28;21011;-79
2022/10/31 16:15:57;;;;;;;1.23;1.13;;;19.00;77.40;;;;;;5075090;28;20437;-78
2022/10/31 16:18:26;;;;;;;2.97;0.97;;;19.00;77.50;;;;;;5073508;28;20437;-78
2022/10/31 16:20:56;;;;;;;1.33;1.03;;;18.90;77.60;;;;;;5074013;28;20462;-78
2022/10/31 16:23:25;;;;;;;1.50;1.23;;;18.80;77.80;;;;;;5074417;28;20475;-78
2022/10/31 16:25:53;;;;;;;1.43;1.10;;;18.80;77.80;;;;;;5074656;28;20445;-78
2022/10/31 16:28:23;;;;;;;1.20;1.10;;;18.70;78.00;;;;;;5075909;28;20454;-78
2022/10/31 16:30:52;;;;;;;0.90;0.90;;;18.70;77.90;;;;;;5073270;28;20477;-77
2022/10/31 16:33:28;;;;;;;1.40;1.30;;;18.60;77.90;;;;;;5073092;28;21012;-77
2022/10/31 16:35:55;;;;;;;1.40;1.30;;;18.60;78.00;;;;;;5073606;28;20433;-78
2022/10/31 16:38:22;;;;;;;1.20;1.10;;;18.50;78.00;;;;;;5073876;28;20920;-79
2022/10/31 16:40:49;;;;;;;1.30;1.20;;;18.40;78.20;;;;;;5074384;28;20465;-77
2022/10/31 16:43:18;;;;;;;1.20;1.10;;;18.30;78.50;;;;;;5074007;28;20445;-78
2022/10/31 16:45:46;;;;;;;1.07;0.93;;;18.30;78.70;;;;;;5073464;28;20469;-78
2022/10/31 16:48:15;;;;;;;1.13;1.10;;;18.30;78.70;;;;;;5074014;28;20449;-78
2022/10/31 16:50:46;;;;;;;1.37;1.20;;;18.20;78.80;;;;;;5073478;28;20540;-78
2022/10/31 16:53:15;;;;;;;1.20;1.10;;;18.20;78.90;;;;;;5073601;28;20472;-78
2022/10/31 16:55:45;;;;;;;1.10;1.10;;;18.10;78.80;;;;;;5074058;28;20449;-78
2022/10/31 16:58:18;;;;;;;1.40;1.30;;;18.00;78.90;;;;;;5077572;28;20448;-78
2022/10/31 17:00:45;;;;;;;0.90;0.90;;;18.00;78.90;;;;;;5077690;28;20465;-78
2022/10/31 17:03:12;;;;;;;0.87;0.87;;;18.00;78.80;;;;;;5077645;28;20437;-77
2022/10/31 17:05:39;;;;;;;1.00;1.00;;;17.90;78.90;;;;;;5076693;28;20441;-78
2022/10/31 17:08:08;;;;;;;1.20;1.10;;;17.90;79.00;;;;;;5076245;28;20441;-78
2022/10/31 17:10:35;;;;;;;1.17;1.07;;;17.80;79.20;;;;;;5076111;28;20971;-78